createdAt,value
2019-03-06T00:00:05.812Z,99.20
2019-03-06T00:02:38.420Z,99.30
2019-03-06T00:05:09.560Z,99.50
2019-03-06T00:07:40.662Z,99.40
2019-03-06T00:10:27.954Z,99.10
2019-03-06T00:12:58.906Z,99.30
2019-03-06T00:15:30.770Z,99.20
2019-03-06T00:18:02.185Z,99.00
2019-03-06T00:20:33.702Z,99.00
2019-03-06T00:23:04.827Z,99.00
2019-03-06T00:25:36.260Z,99.10
2019-03-06T00:28:07.530Z,99.30
2019-03-06T00:30:38.966Z,98.90
2019-03-06T00:33:10.045Z,99.00
2019-03-06T00:35:44.747Z,98.80
2019-03-06T00:38:16.083Z,98.90
2019-03-06T00:40:52.677Z,98.90
2019-03-06T00:43:23.719Z,98.70
2019-03-06T00:45:55.742Z,98.60
2019-03-06T00:48:27.623Z,98.70
2019-03-06T00:50:58.705Z,98.50
2019-03-06T00:53:30.092Z,98.70
2019-03-06T00:56:01.458Z,99.00
2019-03-06T00:58:33.208Z,98.80
2019-03-06T01:01:04.663Z,99.10
2019-03-06T01:03:36.017Z,99.00
2019-03-06T01:06:07.063Z,99.20
2019-03-06T01:08:38.227Z,99.30
2019-03-06T01:11:09.340Z,99.60
2019-03-06T01:13:41.033Z,99.30
2019-03-06T01:16:12.339Z,99.40
2019-03-06T01:18:43.472Z,99.40
2019-03-06T01:21:15.947Z,99.40
2019-03-06T01:23:47.014Z,99.70
2019-03-06T01:26:18.135Z,99.90
2019-03-06T01:28:49.265Z,99.90
2019-03-06T01:31:20.383Z,99.90
2019-03-06T01:34:16.367Z,99.90
2019-03-06T01:37:05.610Z,99.90
2019-03-06T01:39:54.247Z,99.90
2019-03-06T01:42:37.481Z,99.90
2019-03-06T01:45:10.614Z,99.90
2019-03-06T01:47:41.735Z,99.90
2019-03-06T01:50:14.975Z,99.50
2019-03-06T01:52:46.304Z,99.90
2019-03-06T01:55:18.111Z,99.90
2019-03-06T01:57:49.236Z,99.60
2019-03-06T02:00:21.846Z,99.80
2019-03-06T02:02:52.948Z,99.60
2019-03-06T02:05:35.908Z,99.60
2019-03-06T02:08:07.807Z,99.90
2019-03-06T02:10:39.144Z,99.50
2019-03-06T02:13:10.351Z,99.90
2019-03-06T02:15:41.822Z,99.90
2019-03-06T02:18:12.910Z,99.60
2019-03-06T02:20:44.368Z,99.80
2019-03-06T02:23:16.042Z,99.50
2019-03-06T02:25:47.411Z,99.90
2019-03-06T02:28:18.388Z,99.60
2019-03-06T02:30:49.406Z,99.90
2019-03-06T02:33:20.524Z,99.90
2019-03-06T02:35:51.694Z,99.90
2019-03-06T02:38:23.515Z,99.90
2019-03-06T02:40:54.963Z,99.50
2019-03-06T02:43:26.030Z,99.90
2019-03-06T02:45:57.361Z,99.90
2019-03-06T02:48:28.816Z,99.90
2019-03-06T02:50:59.853Z,99.90
2019-03-06T02:53:30.961Z,99.90
2019-03-06T02:56:01.994Z,99.80
2019-03-06T02:58:52.033Z,99.90
2019-03-06T03:01:31.055Z,99.90
2019-03-06T03:04:10.384Z,99.90
2019-03-06T03:06:47.575Z,99.90
2019-03-06T03:09:20.144Z,99.90
2019-03-06T03:11:51.533Z,99.90
2019-03-06T03:14:23.021Z,99.90
2019-03-06T03:16:54.149Z,99.90
2019-03-06T03:19:25.605Z,99.90
2019-03-06T03:21:57.008Z,99.90
2019-03-06T03:24:28.118Z,99.90
2019-03-06T03:26:59.163Z,99.90
2019-03-06T03:29:30.569Z,99.90
2019-03-06T03:32:01.698Z,99.90
2019-03-06T03:34:33.454Z,99.90
2019-03-06T03:37:04.491Z,99.90
2019-03-06T03:39:35.617Z,99.90
2019-03-06T03:42:07.811Z,99.90
2019-03-06T03:44:38.924Z,99.90
2019-03-06T03:47:09.869Z,99.90
2019-03-06T03:49:40.997Z,99.90
2019-03-06T03:52:13.555Z,99.90
2019-03-06T03:54:46.305Z,99.90
2019-03-06T03:57:18.269Z,99.90
2019-03-06T03:59:50.746Z,99.90
2019-03-06T04:02:21.802Z,99.90
2019-03-06T04:04:53.234Z,99.90
2019-03-06T04:07:24.344Z,99.90
2019-03-06T04:09:55.449Z,99.90
2019-03-06T04:12:26.491Z,99.90
2019-03-06T04:14:57.909Z,99.90
2019-03-06T04:17:29.014Z,99.90
2019-03-06T04:20:00.005Z,99.90
2019-03-06T04:22:31.345Z,99.90
2019-03-06T04:25:02.718Z,99.50
2019-03-06T04:27:34.540Z,99.60
2019-03-06T04:30:06.856Z,99.90
2019-03-06T04:32:37.904Z,99.40
2019-03-06T04:35:09.233Z,99.40
2019-03-06T04:37:40.346Z,99.90
2019-03-06T04:40:23.263Z,99.40
2019-03-06T04:42:54.616Z,98.50
2019-03-06T04:45:25.638Z,98.60
2019-03-06T04:47:57.004Z,98.90
2019-03-06T04:50:28.378Z,99.80
2019-03-06T04:52:59.672Z,99.90
2019-03-06T04:55:31.034Z,99.30
2019-03-06T04:58:02.158Z,99.30
2019-03-06T05:00:33.215Z,99.90
2019-03-06T05:03:04.332Z,99.90
2019-03-06T05:05:35.425Z,99.70
2019-03-06T05:08:06.548Z,99.90
2019-03-06T05:10:37.997Z,99.90
2019-03-06T05:13:09.121Z,99.80
2019-03-06T05:15:40.229Z,99.90
2019-03-06T05:18:26.773Z,99.90
2019-03-06T05:20:58.262Z,99.90
2019-03-06T05:23:29.396Z,99.10
2019-03-06T05:26:00.853Z,99.90
2019-03-06T05:28:33.198Z,99.60
2019-03-06T05:31:04.181Z,99.60
2019-03-06T05:33:35.249Z,99.00
2019-03-06T05:36:18.491Z,99.70
2019-03-06T05:39:04.069Z,99.40
2019-03-06T05:41:36.833Z,99.50
2019-03-06T05:44:08.221Z,98.90
2019-03-06T05:46:39.245Z,99.90
2019-03-06T05:49:11.019Z,99.50
2019-03-06T05:51:42.120Z,99.70
2019-03-06T05:54:13.192Z,99.90
2019-03-06T05:56:44.575Z,99.10
2019-03-06T05:59:15.956Z,99.40
2019-03-06T06:01:47.050Z,99.20
2019-03-06T06:04:18.103Z,99.80
2019-03-06T06:06:49.531Z,99.60
2019-03-06T06:09:21.070Z,99.40
2019-03-06T06:11:52.144Z,99.90
2019-03-06T06:14:23.242Z,98.50
2019-03-06T06:16:55.651Z,98.10
2019-03-06T06:19:27.145Z,97.00
2019-03-06T06:22:07.651Z,96.40
2019-03-06T06:24:38.978Z,97.30
2019-03-06T06:27:10.394Z,95.30
2019-03-06T06:29:41.378Z,93.90
2019-03-06T06:32:12.496Z,92.60
2019-03-06T06:34:43.449Z,94.40
2019-03-06T06:37:14.598Z,94.00
2019-03-06T06:39:45.937Z,94.60
2019-03-06T06:42:17.051Z,91.50
2019-03-06T06:44:48.464Z,92.90
2019-03-06T06:47:20.492Z,95.20
2019-03-06T06:49:51.878Z,93.00
2019-03-06T06:53:03.022Z,93.40
2019-03-06T06:55:49.215Z,91.20
2019-03-06T06:58:45.634Z,92.60
2019-03-06T07:02:06.840Z,92.10
2019-03-06T07:05:24.790Z,92.00
2019-03-06T07:08:20.664Z,91.90
2019-03-06T07:11:11.055Z,90.60
2019-03-06T07:14:04.298Z,90.30
2019-03-06T07:17:06.728Z,90.60
2019-03-06T07:19:59.506Z,91.90
2019-03-06T07:22:49.542Z,90.40
2019-03-06T07:25:43.469Z,91.10
2019-03-06T07:28:42.372Z,91.90
2019-03-06T07:31:27.113Z,92.00
2019-03-06T07:34:07.277Z,91.60
2019-03-06T07:36:50.635Z,92.20
2019-03-06T07:39:37.011Z,91.40
2019-03-06T07:42:26.027Z,90.30
2019-03-06T07:45:56.385Z,90.60
2019-03-06T07:48:42.941Z,91.10
2019-03-06T07:51:51.439Z,90.70
2019-03-06T07:54:40.069Z,90.10
2019-03-06T07:57:39.265Z,90.90
2019-03-06T08:00:17.018Z,91.40
2019-03-06T08:03:00.905Z,90.90
2019-03-06T08:05:31.919Z,90.30
2019-03-06T08:08:04.335Z,90.10
2019-03-06T08:10:37.101Z,88.80
2019-03-06T08:13:20.687Z,86.60
2019-03-06T08:16:09.524Z,89.10
2019-03-06T08:18:58.208Z,88.40
2019-03-06T08:21:43.657Z,88.40
2019-03-06T08:24:24.014Z,86.30
2019-03-06T08:26:55.115Z,87.80
2019-03-06T08:29:26.163Z,83.90
2019-03-06T08:32:00.504Z,83.40
2019-03-06T08:34:31.637Z,87.00
2019-03-06T08:37:02.966Z,83.80
2019-03-06T08:39:34.442Z,84.20
2019-03-06T08:42:05.524Z,83.60
2019-03-06T08:44:36.640Z,80.70
2019-03-06T08:47:26.711Z,83.60
2019-03-06T08:50:16.762Z,81.10
2019-03-06T08:53:06.002Z,84.80
2019-03-06T08:55:55.989Z,85.70
2019-03-06T08:58:45.486Z,79.60
2019-03-06T09:01:43.876Z,83.00
2019-03-06T09:04:41.042Z,83.80
2019-03-06T09:07:20.797Z,82.00
2019-03-06T09:10:14.082Z,81.00
2019-03-06T09:13:09.740Z,77.70
2019-03-06T09:15:55.724Z,79.20
2019-03-06T09:18:44.998Z,78.20
2019-03-06T09:21:41.321Z,78.30
2019-03-06T09:24:22.967Z,75.30
2019-03-06T09:27:02.076Z,79.30
2019-03-06T09:29:55.304Z,77.50
2019-03-06T09:32:57.956Z,76.70
2019-03-06T09:35:57.094Z,76.70
2019-03-06T09:38:47.173Z,77.80
2019-03-06T09:41:52.354Z,78.10
2019-03-06T09:44:42.595Z,80.00
2019-03-06T09:47:19.893Z,77.70
2019-03-06T09:50:09.920Z,80.10
2019-03-06T09:52:58.607Z,81.60
2019-03-06T09:56:00.735Z,79.90
2019-03-06T09:58:50.763Z,84.40
2019-03-06T10:01:30.879Z,81.50
2019-03-06T10:04:19.959Z,80.60
2019-03-06T10:07:08.885Z,81.70
2019-03-06T10:09:59.045Z,81.70
2019-03-06T10:12:47.483Z,82.70
2019-03-06T10:15:23.191Z,82.50
2019-03-06T10:18:22.441Z,81.40
2019-03-06T10:20:53.764Z,81.50
2019-03-06T10:23:24.931Z,77.90
2019-03-06T10:25:56.050Z,81.00
2019-03-06T10:28:28.082Z,79.80
2019-03-06T10:31:02.715Z,80.00
2019-03-06T10:33:32.271Z,78.30
2019-03-06T10:36:03.415Z,82.70
2019-03-06T10:38:34.552Z,82.30
2019-03-06T10:41:05.595Z,79.20
2019-03-06T10:43:36.801Z,80.00
2019-03-06T10:46:07.919Z,79.80
2019-03-06T10:48:39.039Z,79.80
2019-03-06T10:51:10.475Z,77.90
2019-03-06T10:53:42.978Z,80.10
2019-03-06T10:56:26.243Z,79.90
2019-03-06T10:58:58.048Z,78.90
2019-03-06T11:01:29.174Z,79.70
2019-03-06T11:04:19.264Z,78.00
2019-03-06T11:06:50.918Z,78.40
2019-03-06T11:09:22.079Z,79.90
2019-03-06T11:11:53.421Z,77.80
2019-03-06T11:14:25.528Z,79.80
2019-03-06T11:16:56.796Z,81.80
2019-03-06T11:19:28.566Z,82.20
2019-03-06T11:21:59.715Z,79.50
2019-03-06T11:24:30.849Z,83.70
2019-03-06T11:27:01.862Z,82.20
2019-03-06T11:29:33.026Z,80.20
2019-03-06T11:32:04.748Z,78.90
2019-03-06T11:34:35.905Z,80.10
2019-03-06T11:37:07.502Z,81.20
2019-03-06T11:39:38.577Z,82.30
2019-03-06T11:42:10.390Z,80.90
2019-03-06T11:44:41.818Z,81.60
2019-03-06T11:47:12.822Z,80.10
2019-03-06T11:49:43.889Z,82.40
2019-03-06T11:52:15.027Z,80.20
2019-03-06T11:54:48.063Z,83.50
2019-03-06T11:57:19.926Z,82.70
2019-03-06T11:59:51.124Z,82.40
2019-03-06T12:02:22.451Z,81.50
2019-03-06T12:04:53.550Z,82.10
2019-03-06T12:07:24.582Z,79.80
2019-03-06T12:09:55.598Z,77.90
2019-03-06T12:12:26.643Z,79.20
2019-03-06T12:14:57.935Z,79.70
2019-03-06T12:17:29.010Z,75.80
2019-03-06T12:20:07.824Z,75.50
2019-03-06T12:22:35.567Z,76.40
2019-03-06T12:25:08.176Z,78.00
2019-03-06T12:27:41.103Z,74.60
2019-03-06T12:30:12.495Z,75.10
2019-03-06T12:32:45.551Z,74.80
2019-03-06T12:35:17.008Z,72.70
2019-03-06T12:37:48.080Z,74.60
2019-03-06T12:40:20.149Z,76.00
2019-03-06T12:42:51.610Z,74.90
2019-03-06T12:45:23.180Z,75.70
2019-03-06T12:47:55.708Z,74.60
2019-03-06T12:50:27.786Z,73.80
2019-03-06T12:52:58.751Z,73.50
2019-03-06T12:55:30.493Z,75.00
2019-03-06T12:58:01.621Z,74.40
2019-03-06T13:00:32.741Z,75.00
2019-03-06T13:03:04.571Z,77.40
2019-03-06T13:05:35.597Z,76.10
2019-03-06T13:08:06.590Z,74.00
2019-03-06T13:10:37.979Z,75.80
2019-03-06T13:13:08.981Z,73.50
2019-03-06T13:15:40.031Z,71.20
2019-03-06T13:18:13.013Z,72.80
2019-03-06T13:20:44.366Z,72.90
2019-03-06T13:23:15.889Z,73.60
2019-03-06T13:25:46.913Z,73.70
2019-03-06T13:28:18.321Z,73.40
2019-03-06T13:30:49.327Z,74.10
2019-03-06T13:33:45.470Z,75.90
2019-03-06T13:36:16.640Z,73.60
2019-03-06T13:38:54.736Z,75.40
2019-03-06T13:41:21.718Z,76.40
2019-03-06T13:43:54.512Z,78.10
2019-03-06T13:46:25.616Z,75.30
2019-03-06T13:48:56.720Z,75.20
2019-03-06T13:51:28.230Z,76.80
2019-03-06T13:54:03.430Z,78.60
2019-03-06T13:56:34.560Z,78.10
2019-03-06T13:59:05.962Z,80.00
2019-03-06T14:01:37.080Z,79.90
2019-03-06T14:04:08.551Z,80.80
2019-03-06T14:06:39.620Z,83.40
2019-03-06T14:09:10.723Z,82.00
2019-03-06T14:11:43.014Z,84.00
2019-03-06T14:14:16.058Z,84.20
2019-03-06T14:16:48.059Z,83.20
2019-03-06T14:19:19.693Z,84.70
2019-03-06T14:21:50.789Z,85.10
2019-03-06T14:24:22.567Z,82.10
2019-03-06T14:26:53.654Z,84.00
2019-03-06T14:29:24.679Z,85.30
2019-03-06T14:31:55.756Z,85.30
2019-03-06T14:34:27.405Z,85.80
2019-03-06T14:36:59.404Z,86.30
2019-03-06T14:39:31.504Z,86.50
2019-03-06T14:42:02.512Z,87.60
2019-03-06T14:44:33.578Z,88.10
2019-03-06T14:47:04.679Z,88.30
2019-03-06T14:49:36.491Z,90.30
2019-03-06T14:52:08.116Z,90.80
2019-03-06T14:54:39.586Z,91.10
2019-03-06T14:57:11.025Z,92.00
2019-03-06T14:59:42.398Z,92.30
2019-03-06T15:02:14.456Z,93.10
2019-03-06T15:04:45.538Z,93.80
2019-03-06T15:07:16.906Z,93.40
2019-03-06T15:09:47.934Z,93.70
2019-03-06T15:12:18.946Z,94.10
2019-03-06T15:14:50.345Z,94.40
2019-03-06T15:17:21.302Z,94.70
2019-03-06T15:19:52.370Z,94.40
2019-03-06T15:22:23.440Z,94.00
2019-03-06T15:24:55.127Z,93.70
2019-03-06T15:27:26.324Z,94.10
2019-03-06T15:29:57.657Z,94.50
2019-03-06T15:32:28.662Z,94.80
2019-03-06T15:34:59.736Z,95.40
2019-03-06T15:37:31.770Z,95.10
2019-03-06T15:40:02.880Z,94.80
2019-03-06T15:42:35.376Z,95.00
2019-03-06T15:45:07.083Z,94.90
2019-03-06T15:47:39.000Z,95.40
2019-03-06T15:50:12.071Z,95.80
2019-03-06T15:52:43.360Z,95.60
2019-03-06T15:55:14.896Z,96.00
2019-03-06T15:57:46.735Z,96.20
2019-03-06T16:00:23.095Z,95.80
2019-03-06T16:02:54.427Z,96.30
2019-03-06T16:05:25.753Z,96.80
2019-03-06T16:07:57.983Z,96.90
2019-03-06T16:10:29.609Z,97.50
2019-03-06T16:13:00.704Z,97.40
2019-03-06T16:15:32.219Z,97.40
2019-03-06T16:18:03.939Z,97.20
2019-03-06T16:20:35.762Z,97.40
2019-03-06T16:23:07.168Z,96.80
2019-03-06T16:25:40.125Z,97.30
2019-03-06T16:28:11.169Z,97.30
2019-03-06T16:30:42.798Z,97.80
2019-03-06T16:33:25.570Z,98.10
2019-03-06T16:35:56.966Z,98.20
2019-03-06T16:38:28.447Z,98.70
2019-03-06T16:40:59.594Z,98.90
2019-03-06T16:43:31.039Z,98.90
2019-03-06T16:46:02.100Z,99.00
2019-03-06T16:48:33.500Z,98.60
2019-03-06T16:51:04.929Z,98.10
2019-03-06T16:53:35.994Z,97.90
2019-03-06T16:56:07.414Z,97.70
2019-03-06T16:58:38.398Z,97.90
2019-03-06T17:01:09.714Z,98.10
2019-03-06T17:03:40.785Z,97.40
2019-03-06T17:06:23.773Z,97.40
2019-03-06T17:08:54.931Z,97.80
2019-03-06T17:11:26.333Z,97.50
2019-03-06T17:13:57.926Z,97.10
2019-03-06T17:16:28.984Z,97.40
2019-03-06T17:19:00.102Z,97.20
2019-03-06T17:21:31.334Z,97.30
2019-03-06T17:24:02.690Z,97.20
2019-03-06T17:26:34.824Z,97.20
2019-03-06T17:29:13.791Z,97.60
2019-03-06T17:31:45.796Z,97.20
2019-03-06T17:34:17.021Z,96.30
2019-03-06T17:36:48.149Z,96.80
2019-03-06T17:39:20.232Z,96.30
2019-03-06T17:41:51.368Z,96.80
2019-03-06T17:44:22.478Z,97.20
2019-03-06T17:46:54.260Z,96.80
2019-03-06T17:49:25.926Z,96.90
2019-03-06T17:51:57.053Z,97.00
2019-03-06T17:54:28.309Z,97.40
2019-03-06T17:56:59.427Z,97.20
2019-03-06T17:59:30.776Z,97.70
2019-03-06T18:02:01.835Z,97.70
2019-03-06T18:04:33.279Z,97.40
2019-03-06T18:07:06.078Z,97.60
2019-03-06T18:09:37.218Z,97.60
2019-03-06T18:12:08.359Z,97.90
2019-03-06T18:14:39.462Z,97.60
2019-03-06T18:17:10.838Z,97.40
2019-03-06T18:19:42.342Z,97.60
2019-03-06T18:22:13.381Z,97.40
2019-03-06T18:24:44.501Z,97.60
2019-03-06T18:27:16.003Z,97.80
2019-03-06T18:29:47.172Z,97.70
2019-03-06T18:32:18.884Z,97.50
2019-03-06T18:34:49.975Z,97.40
2019-03-06T18:37:21.795Z,97.40
2019-03-06T18:39:53.206Z,97.50
2019-03-06T18:42:24.325Z,97.80
2019-03-06T18:44:55.503Z,97.70
2019-03-06T18:47:26.486Z,97.90
2019-03-06T18:49:58.049Z,98.10
2019-03-06T18:52:29.155Z,98.40
2019-03-06T18:55:01.420Z,98.80
2019-03-06T18:57:33.317Z,99.00
2019-03-06T19:00:05.095Z,99.10
2019-03-06T19:02:38.353Z,99.30
2019-03-06T19:05:09.621Z,99.60
2019-03-06T19:07:42.141Z,99.40
2019-03-06T19:10:15.260Z,99.70
2019-03-06T19:12:47.346Z,99.90
2019-03-06T19:15:19.691Z,99.90
2019-03-06T19:17:50.846Z,99.90
2019-03-06T19:20:22.393Z,99.90
2019-03-06T19:22:54.047Z,99.90
2019-03-06T19:25:25.789Z,99.90
2019-03-06T19:27:57.030Z,99.90
2019-03-06T19:30:28.467Z,99.90
2019-03-06T19:32:59.555Z,99.90
2019-03-06T19:35:30.619Z,99.90
2019-03-06T19:38:01.789Z,99.90
2019-03-06T19:40:33.559Z,99.90
2019-03-06T19:43:04.785Z,99.90
2019-03-06T19:45:36.260Z,99.90
2019-03-06T19:48:07.330Z,99.90
2019-03-06T19:50:38.451Z,99.90
2019-03-06T19:53:09.890Z,99.90
2019-03-06T19:55:42.182Z,99.90
2019-03-06T19:58:13.977Z,99.90
2019-03-06T20:00:46.866Z,99.90
2019-03-06T20:03:19.884Z,99.90
2019-03-06T20:05:51.570Z,99.90
2019-03-06T20:08:22.679Z,99.90
2019-03-06T20:10:53.691Z,99.90
2019-03-06T20:13:25.078Z,99.90
2019-03-06T20:15:56.215Z,99.90
2019-03-06T20:18:28.007Z,99.90
2019-03-06T20:20:59.074Z,99.90
2019-03-06T20:23:30.184Z,99.90
2019-03-06T20:26:01.772Z,99.90
2019-03-06T20:28:32.910Z,99.90
2019-03-06T20:31:04.950Z,99.90
2019-03-06T20:33:36.104Z,99.90
2019-03-06T20:36:07.575Z,99.90
2019-03-06T20:38:39.353Z,99.90
2019-03-06T20:41:10.722Z,99.90
2019-03-06T20:43:42.162Z,99.90
2019-03-06T20:46:13.210Z,99.90
2019-03-06T20:48:45.347Z,99.90
2019-03-06T20:51:16.424Z,99.90
2019-03-06T20:53:49.926Z,99.90
2019-03-06T20:56:21.124Z,99.90
2019-03-06T20:58:52.221Z,99.90
2019-03-06T21:01:23.322Z,99.90
2019-03-06T21:03:54.693Z,99.90
2019-03-06T21:06:33.262Z,99.90
2019-03-06T21:08:58.478Z,99.90
2019-03-06T21:11:29.904Z,99.90
2019-03-06T21:14:01.931Z,99.90
2019-03-06T21:16:34.821Z,99.90
2019-03-06T21:19:06.287Z,99.90
2019-03-06T21:21:37.554Z,99.90
2019-03-06T21:24:08.968Z,99.90
2019-03-06T21:26:40.005Z,99.90
2019-03-06T21:29:11.124Z,99.90
2019-03-06T21:31:42.200Z,99.90
2019-03-06T21:34:13.585Z,99.90
2019-03-06T21:36:44.677Z,99.90
2019-03-06T21:39:25.803Z,99.90
2019-03-06T21:41:56.910Z,99.90
2019-03-06T21:44:27.988Z,99.90
2019-03-06T21:46:59.377Z,99.90
2019-03-06T21:49:30.527Z,99.90
2019-03-06T21:52:03.007Z,99.90
2019-03-06T21:54:34.446Z,99.90
2019-03-06T21:57:05.585Z,99.90
2019-03-06T21:59:36.625Z,99.90
2019-03-06T22:02:08.038Z,99.90
2019-03-06T22:04:39.622Z,99.90
2019-03-06T22:07:10.731Z,99.90
2019-03-06T22:09:41.781Z,99.90
2019-03-06T22:12:12.894Z,99.90
2019-03-06T22:14:45.090Z,99.90
2019-03-06T22:17:16.215Z,99.90
2019-03-06T22:19:47.358Z,99.90
2019-03-06T22:22:18.468Z,99.90
2019-03-06T22:24:49.546Z,99.90
2019-03-06T22:27:20.624Z,99.90
2019-03-06T22:29:52.042Z,99.90
2019-03-06T22:32:23.903Z,99.90
2019-03-06T22:34:55.050Z,99.90
2019-03-06T22:37:26.515Z,99.90
2019-03-06T22:39:57.535Z,99.80
2019-03-06T22:42:28.916Z,99.70
2019-03-06T22:45:00.009Z,99.20
2019-03-06T22:47:31.038Z,99.40
2019-03-06T22:50:02.112Z,99.50
2019-03-06T22:52:33.203Z,99.60
2019-03-06T22:55:04.803Z,99.40
2019-03-06T22:57:36.279Z,99.10
2019-03-06T23:00:44.345Z,99.10
2019-03-06T23:03:17.931Z,98.90
2019-03-06T23:05:49.611Z,98.60
2019-03-06T23:08:21.035Z,98.20
2019-03-06T23:10:52.525Z,98.70
2019-03-06T23:13:25.020Z,98.70
2019-03-06T23:15:56.152Z,98.60
2019-03-06T23:18:27.258Z,98.90
2019-03-06T23:20:58.400Z,98.10
2019-03-06T23:23:29.862Z,98.50
2019-03-06T23:26:01.860Z,98.50
2019-03-06T23:28:33.285Z,98.70
2019-03-06T23:31:04.314Z,98.40
2019-03-06T23:33:35.385Z,98.30
2019-03-06T23:36:06.821Z,98.50
2019-03-06T23:38:38.037Z,98.60
2019-03-06T23:41:09.155Z,98.80
2019-03-06T23:43:40.631Z,99.00
2019-03-06T23:46:11.993Z,99.10
2019-03-06T23:48:43.052Z,99.30
2019-03-06T23:51:18.728Z,99.90
2019-03-06T23:53:54.583Z,99.90
2019-03-06T23:56:26.315Z,99.90
2019-03-06T23:58:57.414Z,99.90
